^^
Meteo Knjazevac Station Historical Data
Daily Summary for May 28, 2022 Units:  Both    English   Metric
Daily Weekly Monthly Yearly Custom
  High: Low: Average:
Temperature: 79.2 °F /  26.2 °C 61.9 °F /  16.6 °C 65.9 °F /  18.8 °C
Dew Point: 66.9 °F /  19.4 °C 56.7 °F /  13.7 °C 61.7 °F /  16.5 °C
Humidity: 98% 64% 87%
Wind Speed: 9mph /  14.5km/h - 2.3mph /  3.7km/h
Wind Gust: 21mph /  33.8km/h - -
Wind- - SSW
Pressure: 30.06 in /  1017.8 hPa 29.95 in /  1014.1 hPa -
Precipitation: 0.26 in /  6.6 mm    
Historical Graphs
 
 
Tabular Data for May 28, 2022
Time Temperature Dew Point Pressure Wind Wind Speed Wind Gust Humidity Rainfall Rate (Hourly) solar Conditions
00:00 63.9 °F /  17.7 °C 56.9 °F /  13.8 °C 30.00in /  1015.8hPa West 2mph /  3.2km/h 4mph /  6.4km/h 78% 0.00in /  0mm 0 W/m2
00:10 63.7 °F /  17.6 °C 57 °F /  13.9 °C 30.00in /  1015.8hPa West 2mph /  3.2km/h 4mph /  6.4km/h 79% 0.00in /  0mm 0 W/m2
00:20 63.5 °F /  17.5 °C 56.9 °F /  13.8 °C 30.00in /  1015.8hPa West 2mph /  3.2km/h 6mph /  9.7km/h 79% 0.00in /  0mm 0 W/m2
00:30 63.3 °F /  17.4 °C 56.7 °F /  13.7 °C 29.99in /  1015.5hPa West 2mph /  3.2km/h 6mph /  9.7km/h 79% 0.00in /  0mm 0 W/m2
00:40 63.1 °F /  17.3 °C 56.9 °F /  13.8 °C 30.00in /  1015.8hPa West 7mph /  11.3km/h 11mph /  17.7km/h 80% 0.00in /  0mm 0 W/m2
00:50 63.7 °F /  17.6 °C 57 °F /  13.9 °C 29.99in /  1015.5hPa West 3mph /  4.8km/h 12mph /  19.3km/h 79% 0.00in /  0mm 0 W/m2
01:00 63.7 °F /  17.6 °C 57.4 °F /  14.1 °C 29.99in /  1015.5hPa ESE 2mph /  3.2km/h 6mph /  9.7km/h 80% 0.00in /  0mm 0 W/m2
01:10 64.6 °F /  18.1 °C 58.3 °F /  14.6 °C 30.02in /  1016.5hPa WSW 5mph /  8km/h 12mph /  19.3km/h 80% 0.00in /  0mm 0 W/m2
01:20 65.5 °F /  18.6 °C 60.5 °F /  15.8 °C 30.05in /  1017.5hPa SW 9mph /  14.5km/h 17mph /  27.4km/h 84% 0.06in /  1.52mm 0 W/m2
01:30 64.6 °F /  18.1 °C 60.3 °F /  15.7 °C 30.06in /  1017.8hPa WSW 7mph /  11.3km/h 21mph /  33.8km/h 86% 0.06in /  1.52mm 0 W/m2
01:40 64 °F /  17.8 °C 60.4 °F /  15.8 °C 30.04in /  1017.2hPa SSW 1mph /  1.6km/h 13mph /  20.9km/h 88% 0.03in /  0.76mm 0 W/m2
01:50 63.7 °F /  17.6 °C 60.7 °F /  15.9 °C 30.04in /  1017.2hPa NE 5mph /  8km/h 8mph /  12.9km/h 90% 0.02in /  0.51mm 0 W/m2
02:00 63.2 °F /  17.3 °C 60.2 °F /  15.7 °C 30.04in /  1017.2hPa NNE 7mph /  11.3km/h 11mph /  17.7km/h 90% 0.01in /  0.25mm 0 W/m2
02:10 63.1 °F /  17.3 °C 60.5 °F /  15.8 °C 30.01in /  1016.1hPa East 5mph /  8km/h 9mph /  14.5km/h 91% 0.02in /  0.51mm 0 W/m2
02:20 62.8 °F /  17.1 °C 60.7 °F /  15.9 °C 30.00in /  1015.8hPa ENE 3mph /  4.8km/h 13mph /  20.9km/h 93% 0.02in /  0.51mm 0 W/m2
02:30 62.8 °F /  17.1 °C 60.1 °F /  15.6 °C 30.00in /  1015.8hPa SSE 3mph /  4.8km/h 9mph /  14.5km/h 91% 0.02in /  0.51mm 0 W/m2
02:40 62.6 °F /  17 °C 59.9 °F /  15.5 °C 29.99in /  1015.5hPa South 3mph /  4.8km/h 6mph /  9.7km/h 91% 0.01in /  0.25mm 0 W/m2
02:50 62.4 °F /  16.9 °C 59.8 °F /  15.4 °C 30.00in /  1015.8hPa SW 2mph /  3.2km/h 8mph /  12.9km/h 91% 0.01in /  0.25mm 0 W/m2
03:00 62.4 °F /  16.9 °C 59.8 °F /  15.4 °C 29.99in /  1015.5hPa SSW 2mph /  3.2km/h 8mph /  12.9km/h 91% 0.01in /  0.25mm 0 W/m2
03:10 62.6 °F /  17 °C 59.9 °F /  15.5 °C 29.99in /  1015.5hPa SSW 3mph /  4.8km/h 6mph /  9.7km/h 91% 0.02in /  0.51mm 0 W/m2
03:20 62.4 °F /  16.9 °C 59.8 °F /  15.4 °C 29.98in /  1015.1hPa SW 3mph /  4.8km/h 7mph /  11.3km/h 91% 0.01in /  0.25mm 0 W/m2
03:30 62.2 °F /  16.8 °C 59.6 °F /  15.3 °C 29.98in /  1015.1hPa SW 3mph /  4.8km/h 7mph /  11.3km/h 91% 0.00in /  0mm 0 W/m2
03:40 62.2 °F /  16.8 °C 59.6 °F /  15.3 °C 29.99in /  1015.5hPa SW 3mph /  4.8km/h 7mph /  11.3km/h 91% 0.00in /  0mm 0 W/m2
03:50 62.2 °F /  16.8 °C 60.2 °F /  15.7 °C 29.98in /  1015.1hPa ESE 2mph /  3.2km/h 5mph /  8km/h 93% 0.00in /  0mm 0 W/m2
04:00 62.2 °F /  16.8 °C 60.5 °F /  15.8 °C 29.99in /  1015.5hPa South 2mph /  3.2km/h 5mph /  8km/h 94% 0.00in /  0mm 0 W/m2
04:10 61.9 °F /  16.6 °C 60.7 °F /  15.9 °C 30.02in /  1016.5hPa West 3mph /  4.8km/h 12mph /  19.3km/h 96% 0.00in /  0mm 0 W/m2
04:20 61.9 °F /  16.6 °C 60.7 °F /  15.9 °C 30.03in /  1016.8hPa NNW 2mph /  3.2km/h 7mph /  11.3km/h 96% 0.00in /  0mm 0 W/m2
04:30 62.1 °F /  16.7 °C 60.6 °F /  15.9 °C 30.03in /  1016.8hPa Calm   6mph /  9.7km/h 95% 0.00in /  0mm 0 W/m2
04:40 62.2 °F /  16.8 °C 60.8 °F /  16 °C 30.02in /  1016.5hPa NE 3mph /  4.8km/h 6mph /  9.7km/h 95% 0.00in /  0mm 0 W/m2
04:50 62.2 °F /  16.8 °C 61.1 °F /  16.2 °C 30.01in /  1016.1hPa SE 2mph /  3.2km/h 6mph /  9.7km/h 96% 0.00in /  0mm 0 W/m2
05:00 62.2 °F /  16.8 °C 61.1 °F /  16.2 °C 30.01in /  1016.1hPa SE 3mph /  4.8km/h 6mph /  9.7km/h 96% 0.00in /  0mm 1 W/m2
05:10 62.1 °F /  16.7 °C 60.9 °F /  16.1 °C 30.00in /  1015.8hPa South 2mph /  3.2km/h 6mph /  9.7km/h 96% 0.00in /  0mm 5 W/m2
05:20 61.9 °F /  16.6 °C 60.4 °F /  15.8 °C 30.01in /  1016.1hPa SSW 3mph /  4.8km/h 7mph /  11.3km/h 95% 0.00in /  0mm 4 W/m2
05:30 62.1 °F /  16.7 °C 60.3 °F /  15.7 °C 30.00in /  1015.8hPa SSW 1mph /  1.6km/h 6mph /  9.7km/h 94% 0.00in /  0mm 8 W/m2
05:40 62.1 °F /  16.7 °C 60.6 °F /  15.9 °C 29.99in /  1015.5hPa West 1mph /  1.6km/h 4mph /  6.4km/h 95% 0.00in /  0mm 10 W/m2
05:50 61.9 °F /  16.6 °C 60.4 °F /  15.8 °C 30.00in /  1015.8hPa SW 3mph /  4.8km/h 5mph /  8km/h 95% 0.00in /  0mm 9 W/m2
06:00 61.9 °F /  16.6 °C 60.7 °F /  15.9 °C 29.99in /  1015.5hPa South 1mph /  1.6km/h 6mph /  9.7km/h 96% 0.02in /  0.51mm 12 W/m2
06:10 61.9 °F /  16.6 °C 60.7 °F /  15.9 °C 29.99in /  1015.5hPa NW 2mph /  3.2km/h 3mph /  4.8km/h 96% 0.00in /  0mm 19 W/m2
06:20 61.9 °F /  16.6 °C 61.3 °F /  16.3 °C 29.99in /  1015.5hPa North 1mph /  1.6km/h 5mph /  8km/h 98% 0.00in /  0mm 41 W/m2
06:30 62.1 °F /  16.7 °C 61.5 °F /  16.4 °C 29.98in /  1015.1hPa West 2mph /  3.2km/h 3mph /  4.8km/h 98% 0.00in /  0mm 75 W/m2
06:40 62.2 °F /  16.8 °C 61.7 °F /  16.5 °C 29.98in /  1015.1hPa Calm   4mph /  6.4km/h 98% 0.00in /  0mm 72 W/m2
06:50 62.4 °F /  16.9 °C 61.3 °F /  16.3 °C 29.99in /  1015.5hPa NE 2mph /  3.2km/h 5mph /  8km/h 96% 0.00in /  0mm 48 W/m2
07:00 62.4 °F /  16.9 °C 61 °F /  16.1 °C 29.99in /  1015.5hPa Calm   6mph /  9.7km/h 95% 0.00in /  0mm 74 W/m2
07:10 62.6 °F /  17 °C 61.1 °F /  16.2 °C 29.99in /  1015.5hPa ENE 2mph /  3.2km/h 5mph /  8km/h 95% 0.00in /  0mm 275 W/m2
07:20 62.8 °F /  17.1 °C 61.3 °F /  16.3 °C 29.99in /  1015.5hPa ESE 1mph /  1.6km/h 5mph /  8km/h 95% 0.00in /  0mm 202 W/m2
07:30 63.2 °F /  17.3 °C 61.7 °F /  16.5 °C 29.99in /  1015.5hPa Calm   3mph /  4.8km/h 95% 0.00in /  0mm 317 W/m2
07:40 63.7 °F /  17.6 °C 62.2 °F /  16.8 °C 29.99in /  1015.5hPa ESE 2mph /  3.2km/h 5mph /  8km/h 95% 0.00in /  0mm 292 W/m2
07:50 64.4 °F /  18 °C 62.9 °F /  17.2 °C 29.99in /  1015.5hPa SSW 1mph /  1.6km/h 3mph /  4.8km/h 95% 0.00in /  0mm 302 W/m2
08:00 64.8 °F /  18.2 °C 63.3 °F /  17.4 °C 29.99in /  1015.5hPa SSW 1mph /  1.6km/h 3mph /  4.8km/h 95% 0.00in /  0mm 373 W/m2
08:10 65.3 °F /  18.5 °C 63.5 °F /  17.5 °C 29.99in /  1015.5hPa SSW 1mph /  1.6km/h 3mph /  4.8km/h 94% 0.00in /  0mm 264 W/m2
08:20 65.9 °F /  18.8 °C 63.8 °F /  17.7 °C 29.99in /  1015.5hPa Calm   2mph /  3.2km/h 93% 0.00in /  0mm 368 W/m2
08:30 66.9 °F /  19.4 °C 64.2 °F /  17.9 °C 29.99in /  1015.5hPa West 1mph /  1.6km/h 3mph /  4.8km/h 91% 0.00in /  0mm 435 W/m2
08:40 67.9 °F /  19.9 °C 64.8 °F /  18.2 °C 29.99in /  1015.5hPa West 1mph /  1.6km/h 5mph /  8km/h 90% 0.00in /  0mm 553 W/m2
08:50 68.9 °F /  20.5 °C 65.2 °F /  18.4 °C 29.99in /  1015.5hPa West 2mph /  3.2km/h 5mph /  8km/h 88% 0.00in /  0mm 594 W/m2
09:00 69.8 °F /  21 °C 65.1 °F /  18.4 °C 29.99in /  1015.5hPa WSW 1mph /  1.6km/h 5mph /  8km/h 85% 0.00in /  0mm 479 W/m2
09:10 70.6 °F /  21.4 °C 65.1 °F /  18.4 °C 29.98in /  1015.1hPa SW 3mph /  4.8km/h 4mph /  6.4km/h 83% 0.00in /  0mm 591 W/m2
09:20 71.3 °F /  21.8 °C 65.1 °F /  18.4 °C 29.98in /  1015.1hPa Calm   4mph /  6.4km/h 81% 0.00in /  0mm 670 W/m2
09:30 72.4 °F /  22.4 °C 65.8 °F /  18.8 °C 29.98in /  1015.1hPa WSW 1mph /  1.6km/h 4mph /  6.4km/h 80% 0.00in /  0mm 705 W/m2
09:40 73.2 °F /  22.9 °C 66.3 °F /  19.1 °C 29.97in /  1014.8hPa SW 1mph /  1.6km/h 3mph /  4.8km/h 79% 0.00in /  0mm 721 W/m2
09:50 73.8 °F /  23.2 °C 65.3 °F /  18.5 °C 29.97in /  1014.8hPa South 1mph /  1.6km/h 6mph /  9.7km/h 75% 0.00in /  0mm 749 W/m2
10:00 74.5 °F /  23.6 °C 65.6 °F /  18.7 °C 29.97in /  1014.8hPa SE 1mph /  1.6km/h 6mph /  9.7km/h 74% 0.00in /  0mm 755 W/m2
10:10 75 °F /  23.9 °C 65.4 °F /  18.6 °C 29.97in /  1014.8hPa ESE 2mph /  3.2km/h 5mph /  8km/h 72% 0.00in /  0mm 782 W/m2
10:20 75.4 °F /  24.1 °C 64.9 °F /  18.3 °C 29.97in /  1014.8hPa SSE 2mph /  3.2km/h 4mph /  6.4km/h 70% 0.00in /  0mm 827 W/m2
10:30 76.1 °F /  24.5 °C 66.9 °F /  19.4 °C 29.97in /  1014.8hPa SW 3mph /  4.8km/h 5mph /  8km/h 73% 0.00in /  0mm 847 W/m2
10:40 77 °F /  25 °C 66.5 °F /  19.2 °C 29.96in /  1014.4hPa SW 2mph /  3.2km/h 5mph /  8km/h 70% 0.00in /  0mm 273 W/m2
10:50 77.5 °F /  25.3 °C 66.6 °F /  19.2 °C 29.96in /  1014.4hPa SW 2mph /  3.2km/h 5mph /  8km/h 69% 0.00in /  0mm 651 W/m2
11:00 77.9 °F /  25.5 °C 66.1 °F /  18.9 °C 29.96in /  1014.4hPa SSW 2mph /  3.2km/h 5mph /  8km/h 67% 0.00in /  0mm 586 W/m2
11:10 78.4 °F /  25.8 °C 65.2 °F /  18.4 °C 29.96in /  1014.4hPa West 1mph /  1.6km/h 4mph /  6.4km/h 64% 0.00in /  0mm 489 W/m2
11:20 79.2 °F /  26.2 °C 66.4 °F /  19.1 °C 29.95in /  1014.1hPa WSW 3mph /  4.8km/h 5mph /  8km/h 65% 0.00in /  0mm 653 W/m2
11:30 79.2 °F /  26.2 °C 65.9 °F /  18.8 °C 29.95in /  1014.1hPa West 3mph /  4.8km/h 5mph /  8km/h 64% 0.00in /  0mm 782 W/m2
Knjazevac, Serbia
Compliments of Weather Underground - 2 mb